createdAt,value
2023-03-22T00:00:30.478Z,8.16
2023-03-22T00:01:30.461Z,8.15
2023-03-22T00:02:30.526Z,8.15
2023-03-22T00:03:30.463Z,8.12
2023-03-22T00:04:30.436Z,8.15
2023-03-22T00:05:30.455Z,8.13
2023-03-22T00:06:30.388Z,8.13
2023-03-22T00:07:33.396Z,8.15
2023-03-22T00:08:30.384Z,8.10
2023-03-22T00:09:30.351Z,8.09
2023-03-22T00:10:30.335Z,8.06
2023-03-22T00:11:30.360Z,8.05
2023-03-22T00:12:30.381Z,8.03
2023-03-22T00:13:30.307Z,8.03
2023-03-22T00:14:30.310Z,8.03
2023-03-22T00:15:30.312Z,8.03
2023-03-22T00:16:30.346Z,8.03
2023-03-22T00:17:30.275Z,8.01
2023-03-22T00:18:30.255Z,8.03
2023-03-22T00:19:30.242Z,8.01
2023-03-22T00:20:30.233Z,8.01
2023-03-22T00:21:30.249Z,8.03
2023-03-22T00:22:33.243Z,8.03
2023-03-22T00:23:30.251Z,8.03
2023-03-22T00:24:30.196Z,8.01
2023-03-22T00:25:30.216Z,8.00
2023-03-22T00:26:30.195Z,7.98
2023-03-22T00:27:30.170Z,7.97
2023-03-22T00:28:30.311Z,7.97
2023-03-22T00:29:30.134Z,7.94
2023-03-22T00:30:30.134Z,7.95
2023-03-22T00:31:30.178Z,7.93
2023-03-22T00:32:30.218Z,7.93
2023-03-22T00:33:30.137Z,7.91
2023-03-22T00:34:30.128Z,7.91
2023-03-22T00:35:30.139Z,7.93
2023-03-22T00:36:30.078Z,7.94
2023-03-22T00:37:33.058Z,7.93
2023-03-22T00:38:41.724Z,7.95
2023-03-22T00:39:30.059Z,7.95
2023-03-22T00:40:30.030Z,7.97
2023-03-22T00:41:30.046Z,8.00
2023-03-22T00:42:30.030Z,8.01
2023-03-22T00:43:30.003Z,8.03
2023-03-22T00:44:30.030Z,8.03
2023-03-22T00:45:29.970Z,8.05
2023-03-22T00:46:30.017Z,8.06
2023-03-22T00:47:29.991Z,8.05
2023-03-22T00:49:29.932Z,8.08
2023-03-22T00:50:29.938Z,8.09
2023-03-22T00:51:30.906Z,8.08
2023-03-22T00:52:32.909Z,8.08
2023-03-22T00:53:29.945Z,8.06
2023-03-22T00:54:29.925Z,8.05
2023-03-22T00:55:29.941Z,8.05
2023-03-22T00:56:29.911Z,8.01
2023-03-22T00:57:29.860Z,8.00
2023-03-22T00:58:29.885Z,8.00
2023-03-22T00:59:29.866Z,7.98
2023-03-22T01:00:29.859Z,7.97
2023-03-22T01:01:29.918Z,7.95
2023-03-22T01:02:29.856Z,7.94
2023-03-22T01:03:29.838Z,7.94
2023-03-22T01:04:29.782Z,7.93
2023-03-22T01:05:29.804Z,7.93
2023-03-22T01:06:29.816Z,7.91
2023-03-22T01:07:32.787Z,7.90
2023-03-22T01:08:29.785Z,7.90
2023-03-22T01:09:29.756Z,7.87
2023-03-22T01:10:29.890Z,7.88
2023-03-22T01:11:29.700Z,7.87
2023-03-22T01:12:29.706Z,7.85
2023-03-22T01:13:29.683Z,7.82
2023-03-22T01:14:29.707Z,7.82
2023-03-22T01:15:29.662Z,7.80
2023-03-22T01:16:29.691Z,7.77
2023-03-22T01:17:29.677Z,7.76
2023-03-22T01:18:29.668Z,7.73
2023-03-22T01:19:29.622Z,7.73
2023-03-22T01:20:29.645Z,7.72
2023-03-22T01:21:29.666Z,7.70
2023-03-22T01:22:32.584Z,7.69
2023-03-22T01:23:29.597Z,7.67
2023-03-22T01:24:29.607Z,7.61
2023-03-22T01:25:29.580Z,7.60
2023-03-22T01:26:29.627Z,7.53
2023-03-22T01:27:29.567Z,7.47
2023-03-22T01:28:29.563Z,7.43
2023-03-22T01:29:29.557Z,7.39
2023-03-22T01:30:29.589Z,7.32
2023-03-22T01:31:29.540Z,7.28
2023-03-22T01:32:29.526Z,7.23
2023-03-22T01:33:29.491Z,7.18
2023-03-22T01:34:29.463Z,7.17
2023-03-22T01:35:29.497Z,7.15
2023-03-22T01:36:29.438Z,7.13
2023-03-22T01:37:32.460Z,7.07
2023-03-22T01:38:29.474Z,7.10
2023-03-22T01:39:29.423Z,7.06
2023-03-22T01:40:29.410Z,7.02
2023-03-22T01:41:29.390Z,7.03
2023-03-22T01:42:29.408Z,7.02
2023-03-22T01:43:29.415Z,7.00
2023-03-22T01:44:29.361Z,6.96
2023-03-22T01:45:29.383Z,6.95
2023-03-22T01:46:29.396Z,6.93
2023-03-22T01:47:29.364Z,6.92
2023-03-22T01:48:29.491Z,6.89
2023-03-22T01:49:29.343Z,6.87
2023-03-22T01:50:29.306Z,6.82
2023-03-22T01:51:29.297Z,6.78
2023-03-22T01:52:32.318Z,6.77
2023-03-22T01:53:29.387Z,6.77
2023-03-22T01:54:29.265Z,6.74
2023-03-22T01:55:29.281Z,6.69
2023-03-22T01:56:29.266Z,6.69
2023-03-22T01:57:29.239Z,6.67
2023-03-22T01:58:29.243Z,6.66
2023-03-22T01:59:29.251Z,6.63
2023-03-22T02:00:29.221Z,6.62
2023-03-22T02:01:29.206Z,6.60
2023-03-22T02:02:29.199Z,6.60
2023-03-22T02:03:29.207Z,6.62
2023-03-22T02:04:29.368Z,6.59
2023-03-22T02:05:29.136Z,6.59
2023-03-22T02:06:29.135Z,6.57
2023-03-22T02:07:32.179Z,6.59
2023-03-22T02:08:29.168Z,6.59
2023-03-22T02:09:29.143Z,6.56
2023-03-22T02:10:29.095Z,6.54
2023-03-22T02:11:29.109Z,6.51
2023-03-22T02:12:29.070Z,6.46
2023-03-22T02:13:29.102Z,6.45
2023-03-22T02:14:29.079Z,6.45
2023-03-22T02:15:29.333Z,6.44
2023-03-22T02:16:29.071Z,6.35
2023-03-22T02:17:29.048Z,6.28
2023-03-22T02:18:29.009Z,6.22
2023-03-22T02:19:29.005Z,6.19
2023-03-22T02:20:28.989Z,6.16
2023-03-22T02:21:28.990Z,6.12
2023-03-22T02:22:32.027Z,6.11
2023-03-22T02:23:28.976Z,6.11
2023-03-22T02:24:28.960Z,6.08
2023-03-22T02:25:28.962Z,6.07
2023-03-22T02:26:28.952Z,6.01
2023-03-22T02:27:28.945Z,6.01
2023-03-22T02:28:28.952Z,6.01
2023-03-22T02:29:28.921Z,5.99
2023-03-22T02:30:28.911Z,5.99
2023-03-22T02:31:28.907Z,5.94
2023-03-22T02:32:28.860Z,5.97
2023-03-22T02:33:28.883Z,5.93
2023-03-22T02:34:28.876Z,5.91
2023-03-22T02:35:28.890Z,5.90
2023-03-22T02:36:28.835Z,5.89
2023-03-22T02:37:31.839Z,5.90
2023-03-22T02:38:28.825Z,5.87
2023-03-22T02:39:28.842Z,5.84
2023-03-22T02:40:28.791Z,5.84
2023-03-22T02:41:28.800Z,5.86
2023-03-22T02:42:28.796Z,5.83
2023-03-22T02:43:28.746Z,5.82
2023-03-22T02:44:28.775Z,5.79
2023-03-22T02:45:28.756Z,5.75
2023-03-22T02:46:28.782Z,5.71
2023-03-22T02:47:28.739Z,5.68
2023-03-22T02:48:28.893Z,5.65
2023-03-22T02:49:28.683Z,5.61
2023-03-22T02:50:28.716Z,5.57
2023-03-22T02:51:28.695Z,5.57
2023-03-22T02:52:31.659Z,5.56
2023-03-22T02:53:28.666Z,5.54
2023-03-22T02:54:28.712Z,5.50
2023-03-22T02:55:28.663Z,5.48
2023-03-22T02:56:28.646Z,5.47
2023-03-22T02:57:28.637Z,5.44
2023-03-22T02:58:28.602Z,5.43
2023-03-22T02:59:28.651Z,5.39
2023-03-22T03:00:28.621Z,5.38
2023-03-22T03:01:28.555Z,5.36
2023-03-22T03:02:28.622Z,5.36
2023-03-22T03:03:28.543Z,5.35
2023-03-22T03:04:28.543Z,5.35
2023-03-22T03:05:28.547Z,5.33
2023-03-22T03:06:28.548Z,5.36
2023-03-22T03:07:31.527Z,5.33
2023-03-22T03:08:28.548Z,5.32
2023-03-22T03:09:28.509Z,5.30
2023-03-22T03:10:28.527Z,5.30
2023-03-22T03:11:28.486Z,5.29
2023-03-22T03:12:28.452Z,5.26
2023-03-22T03:13:28.472Z,5.23
2023-03-22T03:14:28.429Z,5.23
2023-03-22T03:15:28.449Z,5.18
2023-03-22T03:16:28.545Z,5.14
2023-03-22T03:17:28.401Z,5.08
2023-03-22T03:18:28.385Z,5.07
2023-03-22T03:19:28.399Z,5.05
2023-03-22T03:20:28.394Z,5.00
2023-03-22T03:21:28.538Z,5.00
2023-03-22T03:22:31.371Z,4.99
2023-03-22T03:23:28.358Z,4.97
2023-03-22T03:24:28.350Z,4.96
2023-03-22T03:25:28.320Z,4.96
2023-03-22T03:26:28.310Z,4.96
2023-03-22T03:27:28.304Z,4.94
2023-03-22T03:28:28.305Z,4.94
2023-03-22T03:29:28.263Z,4.96
2023-03-22T03:30:28.289Z,4.96
2023-03-22T03:31:28.345Z,4.94
2023-03-22T03:32:28.299Z,4.92
2023-03-22T03:33:28.226Z,4.90
2023-03-22T03:34:28.214Z,4.89
2023-03-22T03:35:28.266Z,4.84
2023-03-22T03:36:28.198Z,4.80
2023-03-22T03:37:31.326Z,4.74
2023-03-22T03:38:28.194Z,4.73
2023-03-22T03:39:28.167Z,4.73
2023-03-22T03:40:28.149Z,4.70
2023-03-22T03:41:28.189Z,4.66
2023-03-22T03:42:28.161Z,4.66
2023-03-22T03:43:28.173Z,4.62
2023-03-22T03:44:28.106Z,4.62
2023-03-22T03:45:28.164Z,4.62
2023-03-22T03:46:28.096Z,4.62
2023-03-22T03:47:28.113Z,4.62
2023-03-22T03:48:28.145Z,4.60
2023-03-22T03:49:28.056Z,4.63
2023-03-22T03:50:28.066Z,4.63
2023-03-22T03:51:28.088Z,4.62
2023-03-22T03:52:31.058Z,4.60
2023-03-22T03:53:28.037Z,4.59
2023-03-22T03:54:28.010Z,4.53
2023-03-22T03:55:28.015Z,4.52
2023-03-22T03:56:28.070Z,4.50
2023-03-22T03:57:28.011Z,4.45
2023-03-22T03:58:27.989Z,4.45
2023-03-22T03:59:28.015Z,4.45
2023-03-22T04:00:27.968Z,4.44
2023-03-22T04:01:27.976Z,4.44
2023-03-22T04:02:27.993Z,4.42
2023-03-22T04:03:27.914Z,4.41
2023-03-22T04:04:27.942Z,4.40
2023-03-22T04:05:27.924Z,4.37
2023-03-22T04:06:27.909Z,4.37
2023-03-22T04:07:30.911Z,4.35
2023-03-22T04:08:27.914Z,4.32
2023-03-22T04:09:27.860Z,4.32
2023-03-22T04:10:27.909Z,4.32
2023-03-22T04:11:27.855Z,4.30
2023-03-22T04:12:27.853Z,4.30
2023-03-22T04:13:27.824Z,4.28
2023-03-22T04:14:27.846Z,4.24
2023-03-22T04:15:27.789Z,4.23
2023-03-22T04:16:27.893Z,4.20
2023-03-22T04:17:27.800Z,4.22
2023-03-22T04:18:27.784Z,4.19
2023-03-22T04:19:27.747Z,4.20
2023-03-22T04:20:27.770Z,4.20
2023-03-22T04:21:27.914Z,4.19
2023-03-22T04:22:30.724Z,4.17
2023-03-22T04:23:27.738Z,4.19
2023-03-22T04:24:27.705Z,4.17
2023-03-22T04:25:27.734Z,4.16
2023-03-22T04:26:27.811Z,4.17
2023-03-22T04:27:27.700Z,4.14
2023-03-22T04:28:27.676Z,4.13
2023-03-22T04:29:27.653Z,4.10
2023-03-22T04:30:27.636Z,4.10
2023-03-22T04:31:27.817Z,4.05
2023-03-22T04:32:27.626Z,4.04
2023-03-22T04:33:27.632Z,4.04
2023-03-22T04:34:27.596Z,3.99
2023-03-22T04:35:27.656Z,3.99
2023-03-22T04:36:27.783Z,3.98
2023-03-22T04:37:30.565Z,3.96
2023-03-22T04:38:27.579Z,3.94
2023-03-22T04:39:27.552Z,3.88
2023-03-22T04:40:27.560Z,3.86
2023-03-22T04:41:28.580Z,3.86
2023-03-22T04:42:27.526Z,3.84
2023-03-22T04:43:27.497Z,3.84
2023-03-22T04:44:27.520Z,3.83
2023-03-22T04:45:27.510Z,3.83
2023-03-22T04:46:27.519Z,3.81
2023-03-22T04:47:27.699Z,3.81
2023-03-22T04:48:27.449Z,3.81
2023-03-22T04:49:27.437Z,3.81
2023-03-22T04:50:27.428Z,3.83
2023-03-22T04:51:27.441Z,3.83
2023-03-22T04:52:30.469Z,3.80
2023-03-22T04:53:27.555Z,3.81
2023-03-22T04:54:27.428Z,3.83
2023-03-22T04:55:27.391Z,3.81
2023-03-22T04:56:27.329Z,3.83
2023-03-22T04:57:27.325Z,3.83
2023-03-22T04:58:27.383Z,3.83
2023-03-22T04:59:27.301Z,3.78
2023-03-22T05:00:27.301Z,3.78
2023-03-22T05:01:27.288Z,3.77
2023-03-22T05:02:27.283Z,3.74
2023-03-22T05:03:27.272Z,3.74
2023-03-22T05:04:27.323Z,3.73
2023-03-22T05:05:27.232Z,3.70
2023-03-22T05:06:27.214Z,3.68
2023-03-22T05:07:30.232Z,3.66
2023-03-22T05:08:27.241Z,3.66
2023-03-22T05:09:27.201Z,3.65
2023-03-22T05:10:27.188Z,3.66
2023-03-22T05:11:27.194Z,3.63
2023-03-22T05:12:27.153Z,3.63
2023-03-22T05:13:27.169Z,3.65
2023-03-22T05:14:27.356Z,3.62
2023-03-22T05:15:27.172Z,3.63
2023-03-22T05:16:27.231Z,3.65
2023-03-22T05:17:27.101Z,3.63
2023-03-22T05:18:27.113Z,3.65
2023-03-22T05:19:27.102Z,3.63
2023-03-22T05:20:27.108Z,3.65
2023-03-22T05:21:27.082Z,3.63
2023-03-22T05:22:30.052Z,3.62
2023-03-22T05:23:27.060Z,3.59
2023-03-22T05:24:27.059Z,3.56
2023-03-22T05:25:27.249Z,3.55
2023-03-22T05:26:27.008Z,3.53
2023-03-22T05:27:27.024Z,3.50
2023-03-22T05:28:26.994Z,3.50
2023-03-22T05:29:27.004Z,3.50
2023-03-22T05:30:26.986Z,3.48
2023-03-22T05:31:27.011Z,3.48
2023-03-22T05:32:26.952Z,3.48
2023-03-22T05:33:26.938Z,3.48
2023-03-22T05:34:26.924Z,3.44
2023-03-22T05:35:26.929Z,3.45
2023-03-22T05:36:26.971Z,3.42
2023-03-22T05:37:29.932Z,3.44
2023-03-22T05:38:26.907Z,3.42
2023-03-22T05:39:26.897Z,3.42
2023-03-22T05:40:26.869Z,3.44
2023-03-22T05:41:26.893Z,3.42
2023-03-22T05:42:26.911Z,3.44
2023-03-22T05:43:26.861Z,3.42
2023-03-22T05:44:26.861Z,3.42
2023-03-22T05:45:26.846Z,3.44
2023-03-22T05:46:26.864Z,3.44
2023-03-22T05:47:26.853Z,3.44
2023-03-22T05:48:26.804Z,3.44
2023-03-22T05:49:26.813Z,3.44
2023-03-22T05:50:26.765Z,3.45
2023-03-22T05:51:26.749Z,3.45
2023-03-22T05:52:29.798Z,3.44
2023-03-22T05:53:26.755Z,3.44
2023-03-22T05:54:26.727Z,3.45
2023-03-22T05:55:26.716Z,3.42
2023-03-22T05:56:26.732Z,3.42
2023-03-22T05:57:26.726Z,3.44
2023-03-22T05:58:26.681Z,3.42
2023-03-22T05:59:26.696Z,3.42
2023-03-22T06:00:26.700Z,3.42
2023-03-22T06:01:26.680Z,3.42
2023-03-22T06:02:26.665Z,3.37
2023-03-22T06:03:26.669Z,3.37
2023-03-22T06:04:26.623Z,3.40
2023-03-22T06:05:26.636Z,3.41
2023-03-22T06:06:26.629Z,3.40
2023-03-22T06:07:29.616Z,3.41
2023-03-22T06:08:26.778Z,3.42
2023-03-22T06:09:26.606Z,3.42
2023-03-22T06:10:26.582Z,3.44
2023-03-22T06:11:26.559Z,3.42
2023-03-22T06:12:28.901Z,3.41
2023-03-22T06:13:26.605Z,3.42
2023-03-22T06:14:26.565Z,3.45
2023-03-22T06:15:26.544Z,3.47
2023-03-22T06:16:26.548Z,3.47
2023-03-22T06:17:26.516Z,3.47
2023-03-22T06:18:26.463Z,3.48
2023-03-22T06:19:26.507Z,3.51
2023-03-22T06:20:26.446Z,3.51
2023-03-22T06:21:26.469Z,3.56
2023-03-22T06:22:29.451Z,3.60
2023-03-22T06:23:26.430Z,3.62
2023-03-22T06:24:26.442Z,3.63
2023-03-22T06:25:26.461Z,3.65
2023-03-22T06:26:26.425Z,3.68
2023-03-22T06:27:26.418Z,3.69
2023-03-22T06:28:26.373Z,3.73
2023-03-22T06:29:26.397Z,3.76
2023-03-22T06:30:26.386Z,3.77
2023-03-22T06:31:26.338Z,3.80
2023-03-22T06:32:26.357Z,3.81
2023-03-22T06:33:26.336Z,3.83
2023-03-22T06:34:26.303Z,3.86
2023-03-22T06:35:26.305Z,3.87
2023-03-22T06:36:26.305Z,3.91
2023-03-22T06:37:29.284Z,3.92
2023-03-22T06:38:26.280Z,3.98
2023-03-22T06:39:26.268Z,3.99
2023-03-22T06:40:26.245Z,4.04
2023-03-22T06:41:26.228Z,4.08
2023-03-22T06:42:26.262Z,4.10
2023-03-22T06:43:26.246Z,4.14
2023-03-22T06:44:26.393Z,4.16
2023-03-22T06:45:26.202Z,4.19
2023-03-22T06:46:26.274Z,4.24
2023-03-22T06:47:26.153Z,4.26
2023-03-22T06:48:26.214Z,4.30
2023-03-22T06:49:26.173Z,4.34
2023-03-22T06:50:26.163Z,4.37
2023-03-22T06:51:26.145Z,4.42
2023-03-22T06:52:29.127Z,4.44
2023-03-22T06:53:26.140Z,4.48
2023-03-22T06:54:26.086Z,4.53
2023-03-22T06:55:26.136Z,4.62
2023-03-22T06:56:26.092Z,4.67
2023-03-22T06:57:26.087Z,4.71
2023-03-22T06:58:26.044Z,4.75
2023-03-22T06:59:26.058Z,4.78
2023-03-22T07:00:26.047Z,4.86
2023-03-22T07:01:26.093Z,4.93
2023-03-22T07:02:26.005Z,4.99
2023-03-22T07:03:26.017Z,5.10
2023-03-22T07:04:26.036Z,5.14
2023-03-22T07:05:25.958Z,5.18
2023-03-22T07:06:26.002Z,5.25
2023-03-22T07:07:28.973Z,5.35
2023-03-22T07:08:25.948Z,5.43
2023-03-22T07:09:25.918Z,5.51
2023-03-22T07:10:25.943Z,5.56
2023-03-22T07:11:25.907Z,5.57
2023-03-22T07:12:25.930Z,5.62
2023-03-22T07:13:25.919Z,5.64
2023-03-22T07:14:25.910Z,5.68
2023-03-22T07:15:25.893Z,5.76
2023-03-22T07:16:25.868Z,5.89
2023-03-22T07:17:25.863Z,5.99
2023-03-22T07:18:25.829Z,6.11
2023-03-22T07:19:25.863Z,6.26
2023-03-22T07:20:25.801Z,6.33
2023-03-22T07:21:25.853Z,6.38
2023-03-22T07:22:28.841Z,6.44
2023-03-22T07:23:25.802Z,6.52
2023-03-22T07:24:25.761Z,6.60
2023-03-22T07:25:25.780Z,6.70
2023-03-22T07:26:25.773Z,6.85
2023-03-22T07:27:25.902Z,7.21
2023-03-22T07:28:25.723Z,7.61
2023-03-22T07:29:25.728Z,8.00
2023-03-22T07:30:25.711Z,8.34
2023-03-22T07:32:25.752Z,9.00
2023-03-22T07:33:25.694Z,9.22
2023-03-22T07:34:25.675Z,9.44
2023-03-22T07:35:26.954Z,9.65
2023-03-22T07:36:25.724Z,9.79
2023-03-22T07:37:28.639Z,9.94
2023-03-22T07:38:25.644Z,10.10
2023-03-22T07:39:25.653Z,10.22
2023-03-22T07:40:25.632Z,10.40
2023-03-22T07:41:25.600Z,10.56
2023-03-22T07:42:25.588Z,10.69
2023-03-22T07:43:25.572Z,10.81
2023-03-22T07:44:25.620Z,10.94
2023-03-22T07:45:25.634Z,11.10
2023-03-22T07:46:25.628Z,11.25
2023-03-22T07:47:40.064Z,11.51
2023-03-22T07:48:26.586Z,11.69
2023-03-22T07:50:25.540Z,11.99
2023-03-22T07:51:25.521Z,12.09
2023-03-22T07:52:28.512Z,12.27
2023-03-22T07:53:25.485Z,12.47
2023-03-22T07:54:33.544Z,12.61
2023-03-22T07:55:25.449Z,12.76
2023-03-22T07:56:25.452Z,12.86
2023-03-22T07:57:25.714Z,12.97
2023-03-22T07:58:25.430Z,13.09
2023-03-22T07:59:25.435Z,13.23
2023-03-22T08:00:25.587Z,13.38
2023-03-22T08:01:25.389Z,13.39
2023-03-22T08:02:25.431Z,13.35
2023-03-22T08:03:25.457Z,13.35
2023-03-22T08:04:25.354Z,13.46
2023-03-22T08:05:25.358Z,13.67
2023-03-22T08:06:25.366Z,13.83
2023-03-22T08:07:28.336Z,13.78
2023-03-22T08:08:25.359Z,13.81
2023-03-22T08:09:25.338Z,13.85
2023-03-22T08:10:25.311Z,13.95
2023-03-22T08:11:25.319Z,14.10
2023-03-22T08:12:25.338Z,14.18
2023-03-22T08:13:25.278Z,14.35
2023-03-22T08:14:36.029Z,14.35
2023-03-22T08:15:25.310Z,14.48
2023-03-22T08:16:25.264Z,14.48
2023-03-22T08:18:25.264Z,14.68
2023-03-22T08:19:25.198Z,14.96
2023-03-22T08:20:25.232Z,15.04
2023-03-22T08:21:25.206Z,15.03
2023-03-22T08:22:28.218Z,15.06
2023-03-22T08:23:38.562Z,15.18
2023-03-22T08:24:26.147Z,15.04
2023-03-22T08:25:25.367Z,15.07
2023-03-22T08:26:25.130Z,15.06
2023-03-22T08:27:25.146Z,15.09
2023-03-22T08:28:25.130Z,15.27
2023-03-22T08:29:25.139Z,15.31
2023-03-22T08:30:25.122Z,15.37
2023-03-22T08:31:25.107Z,15.40
2023-03-22T08:32:25.058Z,15.39
2023-03-22T08:33:25.207Z,15.46
2023-03-22T08:34:25.073Z,15.58
2023-03-22T08:35:25.046Z,15.83
2023-03-22T08:36:25.049Z,15.94
2023-03-22T08:37:28.033Z,16.15
2023-03-22T08:38:25.022Z,16.29
2023-03-22T08:39:26.128Z,16.29
2023-03-22T08:40:25.083Z,16.28
2023-03-22T08:41:24.998Z,16.26
2023-03-22T08:42:24.961Z,16.13
2023-03-22T08:43:24.957Z,16.21
2023-03-22T08:44:25.127Z,16.00
2023-03-22T08:45:24.965Z,16.01
2023-03-22T08:46:24.916Z,16.01
2023-03-22T08:47:24.905Z,16.00
2023-03-22T08:48:25.166Z,15.82
2023-03-22T08:49:24.922Z,15.65
2023-03-22T08:50:24.986Z,15.54
2023-03-22T08:51:24.862Z,15.65
2023-03-22T08:52:27.877Z,15.80
2023-03-22T08:53:24.846Z,16.05
2023-03-22T08:54:24.875Z,16.16
2023-03-22T08:55:24.846Z,16.23
2023-03-22T08:56:24.810Z,16.10
2023-03-22T08:57:24.823Z,16.16
2023-03-22T08:58:24.820Z,16.12
2023-03-22T08:59:24.783Z,16.10
2023-03-22T09:00:24.870Z,16.16
2023-03-22T09:01:25.886Z,16.10
2023-03-22T09:02:24.833Z,16.09
2023-03-22T09:03:24.823Z,16.12
2023-03-22T09:04:24.784Z,16.01
2023-03-22T09:05:24.743Z,16.10
2023-03-22T09:06:24.745Z,16.12
2023-03-22T09:07:27.698Z,16.12
2023-03-22T09:08:24.706Z,16.10
2023-03-22T09:09:24.713Z,16.15
2023-03-22T09:10:24.732Z,16.31
2023-03-22T09:11:24.641Z,16.47
2023-03-22T09:12:24.665Z,16.50
2023-03-22T09:13:24.652Z,16.41
2023-03-22T09:14:24.612Z,16.41
2023-03-22T09:15:24.622Z,16.49
2023-03-22T09:16:24.697Z,16.36
2023-03-22T09:17:24.610Z,16.43
2023-03-22T09:18:24.598Z,16.41
2023-03-22T09:19:24.553Z,16.32
2023-03-22T09:20:24.581Z,16.35
2023-03-22T09:21:24.541Z,16.38
2023-03-22T09:22:27.618Z,16.43
2023-03-22T09:23:24.562Z,16.65
2023-03-22T09:24:24.505Z,16.81
2023-03-22T09:25:24.500Z,16.94
2023-03-22T09:26:24.512Z,17.11
2023-03-22T09:27:24.497Z,17.23
2023-03-22T09:28:24.533Z,17.33
2023-03-22T09:29:24.453Z,17.33
2023-03-22T09:30:24.489Z,17.12
2023-03-22T09:31:24.670Z,17.02
2023-03-22T09:32:24.455Z,16.93
2023-03-22T09:33:24.484Z,16.75
2023-03-22T09:34:24.418Z,16.66
2023-03-22T09:35:24.499Z,16.69
2023-03-22T09:36:24.383Z,16.79
2023-03-22T09:37:27.395Z,16.90
2023-03-22T09:38:24.406Z,16.99
2023-03-22T09:39:24.375Z,16.97
2023-03-22T09:40:24.374Z,17.01
2023-03-22T09:41:24.354Z,17.04
2023-03-22T09:42:24.322Z,17.16
2023-03-22T09:43:24.325Z,17.29
2023-03-22T09:44:24.307Z,17.39
2023-03-22T09:45:24.321Z,17.23
2023-03-22T09:46:24.423Z,17.20
2023-03-22T09:47:26.968Z,17.20
2023-03-22T09:48:25.314Z,17.11
2023-03-22T09:49:24.238Z,17.09
2023-03-22T09:50:24.303Z,17.29
2023-03-22T09:51:24.232Z,17.27
2023-03-22T09:52:27.527Z,17.29
2023-03-22T09:53:24.269Z,17.30
2023-03-22T09:54:24.232Z,17.49
2023-03-22T09:55:24.235Z,17.49
2023-03-22T09:56:24.282Z,17.48
2023-03-22T09:57:24.158Z,17.38
2023-03-22T09:58:24.235Z,17.42
2023-03-22T09:59:24.162Z,17.41
2023-03-22T10:00:24.215Z,17.45
2023-03-22T10:01:24.291Z,17.48
2023-03-22T10:02:24.208Z,17.46
2023-03-22T10:03:24.121Z,17.54
2023-03-22T10:04:24.213Z,17.65
2023-03-22T10:05:24.076Z,17.67
2023-03-22T10:06:24.060Z,17.67
2023-03-22T10:07:27.090Z,17.68
2023-03-22T10:08:24.091Z,17.59
2023-03-22T10:09:24.065Z,17.68
2023-03-22T10:10:24.039Z,17.74
2023-03-22T10:11:24.041Z,17.63
2023-03-22T10:12:23.998Z,17.56
2023-03-22T10:13:24.028Z,17.67
2023-03-22T10:14:24.012Z,17.65
2023-03-22T10:15:23.979Z,17.60
2023-03-22T10:16:23.998Z,17.49
2023-03-22T10:17:23.937Z,17.44
2023-03-22T10:18:23.974Z,17.46
2023-03-22T10:19:23.970Z,17.54
2023-03-22T10:20:23.909Z,17.59
2023-03-22T10:22:26.919Z,17.44
2023-03-22T10:23:23.901Z,17.38
2023-03-22T10:24:23.920Z,17.36
2023-03-22T10:25:23.867Z,17.42
2023-03-22T10:26:23.868Z,17.52
2023-03-22T10:27:23.860Z,17.52
2023-03-22T10:28:23.851Z,17.63
2023-03-22T10:29:23.849Z,17.68
2023-03-22T10:30:23.880Z,17.86
2023-03-22T10:31:23.871Z,18.00
2023-03-22T10:32:23.800Z,18.04
2023-03-22T10:33:23.799Z,17.95
2023-03-22T10:34:23.806Z,17.89
2023-03-22T10:35:23.871Z,17.87
2023-03-22T10:36:23.786Z,17.71
2023-03-22T10:37:26.758Z,17.60
2023-03-22T10:38:23.748Z,17.64
2023-03-22T10:39:23.722Z,17.60
2023-03-22T10:40:23.694Z,17.68
2023-03-22T10:41:23.748Z,17.87
2023-03-22T10:42:23.708Z,18.00
2023-03-22T10:43:23.695Z,18.04
2023-03-22T10:44:23.685Z,18.11
2023-03-22T10:45:23.657Z,18.05
2023-03-22T10:46:23.833Z,18.01
2023-03-22T10:47:23.658Z,17.95
2023-03-22T10:48:23.779Z,18.04
2023-03-22T10:49:23.640Z,18.03
2023-03-22T10:50:23.599Z,18.10
2023-03-22T10:51:23.581Z,17.98
2023-03-22T10:52:26.615Z,17.76
2023-03-22T10:53:23.582Z,17.60
2023-03-22T10:54:25.987Z,17.63
2023-03-22T10:55:23.575Z,17.70
2023-03-22T10:56:23.551Z,17.82
2023-03-22T10:57:23.793Z,17.92
2023-03-22T10:58:23.551Z,17.87
2023-03-22T10:59:23.494Z,17.95
2023-03-22T11:00:23.617Z,17.89
2023-03-22T11:01:23.651Z,18.00
2023-03-22T11:02:23.615Z,18.19
2023-03-22T11:03:23.486Z,18.23
2023-03-22T11:04:23.455Z,18.33
2023-03-22T11:05:23.434Z,18.50
2023-03-22T11:06:23.458Z,18.66
2023-03-22T11:07:26.422Z,18.77
2023-03-22T11:08:23.431Z,18.77
2023-03-22T11:09:23.401Z,18.84
2023-03-22T11:10:23.408Z,18.77
2023-03-22T11:11:23.417Z,18.63
2023-03-22T11:12:23.372Z,18.65
2023-03-22T11:13:23.396Z,18.56
2023-03-22T11:14:23.380Z,18.73
2023-03-22T11:15:23.334Z,18.73
2023-03-22T11:16:23.457Z,18.60
2023-03-22T11:17:23.317Z,18.63
2023-03-22T11:18:23.311Z,18.53
2023-03-22T11:19:23.329Z,18.56
2023-03-22T11:20:23.346Z,18.53
2023-03-22T11:21:24.307Z,18.56
2023-03-22T11:22:26.255Z,18.60
2023-03-22T11:23:23.261Z,18.65
2023-03-22T11:24:23.253Z,18.66
2023-03-22T11:25:23.227Z,18.81
2023-03-22T11:27:23.218Z,18.68
2023-03-22T11:28:23.243Z,18.58
2023-03-22T11:29:23.191Z,18.41
2023-03-22T11:30:23.178Z,18.43
2023-03-22T11:31:23.217Z,18.47
2023-03-22T11:32:23.184Z,18.65
2023-03-22T11:33:23.134Z,18.81
2023-03-22T11:34:23.153Z,18.98
2023-03-22T11:35:23.183Z,18.96
2023-03-22T11:36:23.133Z,18.80
2023-03-22T11:37:26.098Z,18.84
2023-03-22T11:38:23.155Z,18.71
2023-03-22T11:39:23.122Z,18.75
2023-03-22T11:41:23.061Z,18.77
2023-03-22T11:42:23.043Z,18.89
2023-03-22T11:43:23.031Z,18.95
2023-03-22T11:44:23.032Z,18.86
2023-03-22T11:45:23.018Z,18.75
2023-03-22T11:46:23.088Z,18.80
2023-03-22T11:47:23.011Z,18.65
2023-03-22T11:48:23.081Z,18.63
2023-03-22T11:49:23.013Z,18.68
2023-03-22T11:50:23.087Z,18.75
2023-03-22T11:51:22.958Z,18.90
2023-03-22T11:52:25.948Z,19.08
2023-03-22T11:53:22.969Z,19.26
2023-03-22T11:54:23.004Z,19.39
2023-03-22T11:55:22.951Z,19.34
2023-03-22T11:56:22.928Z,19.09
2023-03-22T11:57:22.933Z,18.86
2023-03-22T11:58:24.030Z,18.88
2023-03-22T11:59:22.873Z,18.92
2023-03-22T12:00:22.887Z,18.83
2023-03-22T12:01:22.899Z,18.95
2023-03-22T12:02:22.901Z,19.14
2023-03-22T12:03:22.977Z,19.27
2023-03-22T12:04:22.890Z,19.08
2023-03-22T12:05:22.938Z,19.04
2023-03-22T12:06:22.888Z,19.18
2023-03-22T12:07:25.778Z,19.26
2023-03-22T12:08:22.788Z,19.26
2023-03-22T12:09:22.780Z,19.21
2023-03-22T12:10:22.781Z,19.21
2023-03-22T12:11:22.772Z,19.26
2023-03-22T12:12:22.796Z,19.24
2023-03-22T12:13:22.732Z,19.18
2023-03-22T12:14:22.714Z,19.22
2023-03-22T12:15:22.691Z,19.27
2023-03-22T12:16:24.789Z,19.34
2023-03-22T12:17:22.730Z,19.33
2023-03-22T12:18:22.703Z,19.36
2023-03-22T12:19:22.680Z,19.22
2023-03-22T12:20:22.692Z,19.18
2023-03-22T12:21:22.632Z,19.27
2023-03-22T12:22:25.660Z,19.19
2023-03-22T12:23:22.658Z,19.21
2023-03-22T12:24:22.619Z,19.36
2023-03-22T12:25:22.627Z,19.54
2023-03-22T12:26:22.611Z,19.58
2023-03-22T12:27:22.585Z,19.41
2023-03-22T12:28:22.580Z,19.47
2023-03-22T12:29:22.566Z,19.34
2023-03-22T12:30:22.578Z,19.30
2023-03-22T12:31:22.628Z,19.22
2023-03-22T12:32:22.551Z,19.27
2023-03-22T12:33:22.562Z,19.27
2023-03-22T12:34:22.523Z,19.26
2023-03-22T12:35:22.497Z,19.21
2023-03-22T12:36:22.539Z,19.12
2023-03-22T12:37:25.491Z,18.98
2023-03-22T12:38:22.471Z,18.99
2023-03-22T12:39:22.463Z,19.11
2023-03-22T12:40:22.466Z,19.14
2023-03-22T12:41:22.444Z,19.16
2023-03-22T12:42:22.450Z,19.33
2023-03-22T12:43:22.401Z,19.37
2023-03-22T12:44:22.597Z,19.44
2023-03-22T12:45:22.439Z,19.37
2023-03-22T12:46:22.468Z,19.34
2023-03-22T12:47:22.414Z,19.39
2023-03-22T12:48:22.513Z,19.41
2023-03-22T12:49:22.360Z,19.52
2023-03-22T12:50:22.316Z,19.59
2023-03-22T12:51:22.350Z,19.64
2023-03-22T12:52:28.057Z,19.59
2023-03-22T12:53:23.356Z,19.64
2023-03-22T12:54:22.305Z,19.66
2023-03-22T12:55:22.306Z,19.74
2023-03-22T12:56:22.296Z,19.85
2023-03-22T12:57:22.282Z,20.04
2023-03-22T12:58:22.272Z,20.19
2023-03-22T12:59:22.270Z,20.32
2023-03-22T13:00:22.211Z,20.40
2023-03-22T13:01:22.293Z,20.29
2023-03-22T13:02:22.209Z,20.34
2023-03-22T13:03:22.424Z,20.29
2023-03-22T13:04:22.239Z,20.31
2023-03-22T13:05:22.165Z,20.40
2023-03-22T13:06:22.154Z,20.31
2023-03-22T13:07:25.180Z,20.29
2023-03-22T13:08:22.182Z,20.34
2023-03-22T13:09:22.128Z,20.36
2023-03-22T13:10:22.147Z,20.44
2023-03-22T13:11:22.118Z,20.44
2023-03-22T13:12:22.086Z,20.50
2023-03-22T13:13:22.106Z,20.60
2023-03-22T13:14:22.134Z,20.65